createdAt,value
2018-07-13T00:01:22.215Z,17.01
2018-07-13T00:03:51.879Z,17.00
2018-07-13T00:06:20.079Z,16.74
2018-07-13T00:08:48.191Z,16.96
2018-07-13T00:11:16.256Z,16.94
2018-07-13T00:14:24.512Z,16.89
2018-07-13T00:16:53.950Z,16.81
2018-07-13T00:19:22.963Z,16.76
2018-07-13T00:21:51.887Z,16.70
2018-07-13T00:24:20.781Z,16.64
2018-07-13T00:26:49.025Z,16.61
2018-07-13T00:29:17.256Z,16.59
2018-07-13T00:31:45.623Z,16.57
2018-07-13T00:34:13.683Z,16.54
2018-07-13T00:36:41.887Z,16.51
2018-07-13T00:39:11.625Z,16.48
2018-07-13T00:41:39.675Z,16.45
2018-07-13T00:44:08.196Z,16.42
2018-07-13T00:46:36.236Z,16.39
2018-07-13T00:49:04.346Z,16.34
2018-07-13T00:51:32.500Z,16.27
2018-07-13T00:54:00.794Z,16.23
2018-07-13T00:56:29.049Z,16.18
2018-07-13T00:58:57.245Z,16.14
2018-07-13T01:01:25.275Z,16.08
2018-07-13T01:03:53.356Z,16.05
2018-07-13T01:06:21.412Z,16.00
2018-07-13T01:08:49.467Z,15.96
2018-07-13T01:11:17.553Z,15.94
2018-07-13T01:13:45.591Z,15.90
2018-07-13T01:16:13.808Z,15.87
2018-07-13T01:18:41.871Z,15.85
2018-07-13T01:21:09.919Z,15.84
2018-07-13T01:23:38.098Z,15.85
2018-07-13T01:26:06.174Z,15.85
2018-07-13T01:28:34.383Z,15.84
2018-07-13T01:31:02.799Z,15.83
2018-07-13T01:33:30.860Z,15.81
2018-07-13T01:35:58.931Z,15.78
2018-07-13T01:38:27.403Z,15.75
2018-07-13T01:40:55.451Z,15.68
2018-07-13T01:43:23.514Z,15.61
2018-07-13T01:45:51.744Z,15.59
2018-07-13T01:48:20.387Z,15.57
2018-07-13T01:50:48.979Z,15.53
2018-07-13T01:53:17.114Z,15.51
2018-07-13T01:55:45.217Z,15.46
2018-07-13T01:58:13.208Z,15.40
2018-07-13T02:00:41.706Z,15.37
2018-07-13T02:03:09.776Z,15.31
2018-07-13T02:05:37.842Z,15.31
2018-07-13T02:08:06.021Z,15.34
2018-07-13T02:10:34.083Z,15.36
2018-07-13T02:13:02.127Z,15.37
2018-07-13T02:15:30.207Z,15.37
2018-07-13T02:17:58.416Z,15.39
2018-07-13T02:20:26.807Z,15.43
2018-07-13T02:22:55.003Z,15.46
2018-07-13T02:25:23.323Z,15.49
2018-07-13T02:27:51.843Z,15.56
2018-07-13T02:30:20.252Z,15.61
2018-07-13T02:32:48.929Z,15.67
2018-07-13T02:35:17.070Z,15.73
2018-07-13T02:37:46.263Z,15.75
2018-07-13T02:40:14.487Z,15.77
2018-07-13T02:42:42.535Z,15.77
2018-07-13T02:45:10.847Z,15.76
2018-07-13T02:47:38.933Z,15.76
2018-07-13T02:50:07.029Z,15.77
2018-07-13T02:52:35.181Z,15.77
2018-07-13T02:55:03.278Z,15.79
2018-07-13T02:57:31.377Z,15.81
2018-07-13T02:59:59.545Z,15.84
2018-07-13T03:02:27.576Z,15.86
2018-07-13T03:04:55.632Z,15.88
2018-07-13T03:07:23.720Z,15.89
2018-07-13T03:09:51.771Z,15.91
2018-07-13T03:15:10.076Z,15.93
2018-07-13T03:17:38.117Z,15.94
2018-07-13T03:20:06.152Z,15.94
2018-07-13T03:22:34.197Z,15.95
2018-07-13T03:25:02.271Z,15.99
2018-07-13T03:27:30.327Z,16.00
2018-07-13T03:29:58.439Z,16.03
2018-07-13T03:32:26.507Z,16.05
2018-07-13T03:34:54.855Z,16.05
2018-07-13T03:37:22.910Z,16.00
2018-07-13T03:39:50.972Z,15.91
2018-07-13T03:42:19.311Z,15.83
2018-07-13T03:44:47.359Z,15.83
2018-07-13T03:47:15.441Z,15.87
2018-07-13T03:49:43.515Z,15.83
2018-07-13T03:52:11.575Z,15.84
2018-07-13T03:54:39.628Z,15.85
2018-07-13T03:57:07.679Z,15.90
2018-07-13T03:59:35.757Z,15.95
2018-07-13T04:02:03.813Z,15.99
2018-07-13T04:04:31.916Z,16.01
2018-07-13T04:06:59.981Z,16.03
2018-07-13T04:09:28.395Z,16.07
2018-07-13T04:11:56.472Z,16.10
2018-07-13T04:14:24.524Z,16.13
2018-07-13T04:16:52.856Z,16.17
2018-07-13T04:19:20.903Z,16.21
2018-07-13T04:21:48.956Z,16.25
2018-07-13T04:24:17.044Z,16.30
2018-07-13T04:26:47.343Z,16.34
2018-07-13T04:29:15.468Z,16.27
2018-07-13T04:31:43.527Z,16.32
2018-07-13T04:34:11.622Z,16.34
2018-07-13T04:36:39.672Z,16.37
2018-07-13T04:39:09.324Z,16.43
2018-07-13T04:41:37.388Z,16.50
2018-07-13T04:44:05.743Z,16.47
2018-07-13T04:46:34.283Z,16.48
2018-07-13T04:49:02.600Z,16.50
2018-07-13T04:51:30.656Z,16.50
2018-07-13T04:53:58.794Z,16.50
2018-07-13T04:56:27.037Z,16.57
2018-07-13T04:58:55.249Z,16.56
2018-07-13T05:01:23.449Z,16.47
2018-07-13T05:03:51.496Z,16.46
2018-07-13T05:06:19.679Z,16.41
2018-07-13T05:08:47.689Z,16.53
2018-07-13T05:11:15.764Z,16.63
2018-07-13T05:13:43.831Z,16.50
2018-07-13T05:16:11.951Z,16.63
2018-07-13T05:18:40.020Z,16.71
2018-07-13T05:21:08.081Z,16.79
2018-07-13T05:23:36.152Z,16.88
2018-07-13T05:26:04.320Z,16.99
2018-07-13T05:28:32.399Z,17.06
2018-07-13T05:31:00.497Z,17.09
2018-07-13T05:33:28.571Z,17.17
2018-07-13T05:35:56.876Z,17.26
2018-07-13T05:38:24.949Z,17.38
2018-07-13T05:40:52.992Z,17.22
2018-07-13T05:43:21.062Z,17.15
2018-07-13T05:45:49.119Z,17.14
2018-07-13T05:48:17.328Z,17.21
2018-07-13T05:50:45.443Z,17.24
2018-07-13T05:53:13.504Z,17.18
2018-07-13T05:55:41.586Z,17.34
2018-07-13T05:58:09.663Z,17.37
2018-07-13T06:00:37.889Z,17.40
2018-07-13T06:03:05.960Z,17.36
2018-07-13T06:05:34.329Z,17.37
2018-07-13T06:08:02.489Z,17.45
2018-07-13T06:10:30.551Z,17.38
2018-07-13T06:12:58.636Z,17.19
2018-07-13T06:15:27.772Z,17.27
2018-07-13T06:17:55.884Z,17.45
2018-07-13T06:20:24.018Z,17.47
2018-07-13T06:22:52.179Z,17.43
2018-07-13T06:25:20.213Z,17.48
2018-07-13T06:27:48.284Z,17.35
2018-07-13T06:30:16.343Z,17.41
2018-07-13T06:32:44.755Z,17.30
2018-07-13T06:35:12.832Z,17.32
2018-07-13T06:37:40.880Z,17.37
2018-07-13T06:40:09.185Z,17.25
2018-07-13T06:42:37.236Z,17.16
2018-07-13T06:45:05.343Z,17.28
2018-07-13T06:47:33.488Z,17.37
2018-07-13T06:50:01.547Z,17.05
2018-07-13T06:52:29.863Z,17.28
2018-07-13T06:54:57.928Z,17.44
2018-07-13T06:57:37.303Z,17.53
2018-07-13T07:01:17.415Z,17.70
2018-07-13T07:04:48.507Z,17.48
2018-07-13T07:07:18.148Z,17.48
2018-07-13T07:09:48.811Z,17.47
2018-07-13T07:12:56.662Z,17.58
2018-07-13T07:15:25.416Z,17.56
2018-07-13T07:17:54.530Z,17.80
2018-07-13T07:20:22.591Z,17.97
2018-07-13T07:22:50.648Z,18.03
2018-07-13T07:25:18.975Z,17.99
2018-07-13T07:27:47.167Z,17.99
2018-07-13T07:30:15.207Z,17.90
2018-07-13T07:32:44.045Z,18.19
2018-07-13T07:35:12.140Z,18.28
2018-07-13T07:37:40.288Z,18.52
2018-07-13T07:40:08.321Z,18.55
2018-07-13T07:42:36.362Z,18.54
2018-07-13T07:45:04.988Z,18.75
2018-07-13T07:47:33.388Z,18.94
2018-07-13T07:50:02.262Z,19.13
2018-07-13T07:52:30.568Z,19.01
2018-07-13T07:54:58.711Z,19.09
2018-07-13T07:57:26.958Z,19.10
2018-07-13T07:59:55.073Z,19.22
2018-07-13T08:02:23.321Z,18.91
2018-07-13T08:04:51.501Z,18.87
2018-07-13T08:07:19.920Z,19.19
2018-07-13T08:09:47.852Z,19.35
2018-07-13T08:12:16.077Z,19.58
2018-07-13T08:14:44.142Z,19.46
2018-07-13T08:17:12.169Z,19.68
2018-07-13T08:19:40.216Z,19.88
2018-07-13T08:22:15.075Z,19.84
2018-07-13T08:24:44.352Z,19.62
2018-07-13T08:27:14.595Z,19.83
2018-07-13T08:29:42.644Z,20.02
2018-07-13T08:32:10.699Z,19.47
2018-07-13T08:34:39.672Z,19.62
2018-07-13T08:37:07.809Z,19.33
2018-07-13T08:39:36.118Z,19.61
2018-07-13T08:42:04.204Z,19.77
2018-07-13T08:44:32.271Z,20.02
2018-07-13T08:47:01.711Z,19.79
2018-07-13T08:49:29.755Z,19.58
2018-07-13T08:51:57.831Z,19.71
2018-07-13T08:54:25.927Z,19.77
2018-07-13T08:56:54.892Z,19.69
2018-07-13T08:59:23.097Z,19.49
2018-07-13T09:01:51.260Z,18.85
2018-07-13T09:04:19.400Z,19.23
2018-07-13T09:06:47.557Z,19.46
2018-07-13T09:09:17.471Z,19.54
2018-07-13T09:11:45.861Z,19.80
2018-07-13T09:14:13.964Z,19.95
2018-07-13T09:16:42.068Z,20.16
2018-07-13T09:19:10.120Z,20.34
2018-07-13T09:21:38.547Z,20.33
2018-07-13T09:24:07.257Z,19.99
2018-07-13T09:26:35.343Z,19.70
2018-07-13T09:29:03.384Z,20.04
2018-07-13T09:31:31.443Z,20.12
2018-07-13T09:33:59.501Z,20.42
2018-07-13T09:36:27.561Z,20.70
2018-07-13T09:38:55.631Z,20.93
2018-07-13T09:41:23.679Z,20.68
2018-07-13T09:43:52.007Z,20.42
2018-07-13T09:46:20.079Z,20.59
2018-07-13T09:48:48.135Z,20.78
2018-07-13T09:51:16.204Z,20.73
2018-07-13T09:53:44.328Z,21.01
2018-07-13T09:56:12.376Z,21.09
2018-07-13T09:58:40.472Z,21.06
2018-07-13T10:01:14.103Z,21.30
2018-07-13T10:03:42.618Z,21.55
2018-07-13T10:06:10.676Z,21.82
2018-07-13T10:08:38.753Z,21.92
2018-07-13T10:11:06.996Z,22.11
2018-07-13T10:13:35.092Z,22.57
2018-07-13T10:16:23.911Z,22.59
2018-07-13T10:18:52.486Z,22.56
2018-07-13T10:21:20.580Z,22.40
2018-07-13T10:23:48.796Z,22.44
2018-07-13T10:26:22.011Z,22.45
2018-07-13T10:28:50.361Z,22.49
2018-07-13T10:31:18.452Z,22.50
2018-07-13T10:33:47.444Z,22.33
2018-07-13T10:36:16.900Z,22.34
2018-07-13T10:38:45.275Z,22.47
2018-07-13T10:41:13.364Z,22.39
2018-07-13T10:43:41.862Z,22.65
2018-07-13T10:46:09.948Z,22.81
2018-07-13T10:48:38.041Z,22.84
2018-07-13T10:51:06.097Z,23.03
2018-07-13T10:53:34.428Z,23.14
2018-07-13T10:56:02.512Z,23.12
2018-07-13T10:58:30.647Z,22.71
2018-07-13T11:00:58.843Z,22.90
2018-07-13T11:03:26.987Z,22.58
2018-07-13T11:05:55.412Z,22.29
2018-07-13T11:08:24.003Z,22.32
2018-07-13T11:10:52.265Z,22.32
2018-07-13T11:13:20.696Z,21.83
2018-07-13T11:15:49.003Z,21.67
2018-07-13T11:18:17.063Z,21.84
2018-07-13T11:20:45.172Z,21.67
2018-07-13T11:23:13.240Z,21.13
2018-07-13T11:25:41.315Z,21.48
2018-07-13T11:28:09.544Z,21.64
2018-07-13T11:30:37.620Z,21.79
2018-07-13T11:33:06.616Z,21.86
2018-07-13T11:35:34.716Z,22.03
2018-07-13T11:38:02.782Z,22.31
2018-07-13T11:40:31.008Z,22.20
2018-07-13T11:42:59.216Z,22.38
2018-07-13T11:45:27.437Z,22.63
2018-07-13T11:47:55.591Z,22.66
2018-07-13T11:50:23.913Z,22.82
2018-07-13T11:52:52.214Z,22.94
2018-07-13T11:55:20.389Z,23.16
2018-07-13T11:57:48.645Z,23.28
2018-07-13T12:00:16.740Z,23.43
2018-07-13T12:02:44.783Z,23.59
2018-07-13T12:05:12.825Z,23.75
2018-07-13T12:07:41.011Z,23.83
2018-07-13T12:10:08.995Z,23.67
2018-07-13T12:12:37.071Z,23.67
2018-07-13T12:15:05.144Z,23.86
2018-07-13T12:17:33.268Z,23.95
2018-07-13T12:20:01.302Z,23.93
2018-07-13T12:22:29.390Z,24.00
2018-07-13T12:24:57.448Z,24.14
2018-07-13T12:27:25.501Z,24.25
2018-07-13T12:29:53.581Z,24.12
2018-07-13T12:32:22.500Z,23.89
2018-07-13T12:34:50.531Z,24.12
2018-07-13T12:37:18.687Z,24.14
2018-07-13T12:39:46.808Z,24.10
2018-07-13T12:42:14.897Z,24.01
2018-07-13T12:44:42.917Z,23.80
2018-07-13T12:47:10.968Z,23.67
2018-07-13T12:49:39.012Z,23.68
2018-07-13T12:52:07.628Z,23.80
2018-07-13T12:54:35.715Z,24.04
2018-07-13T12:57:03.744Z,24.12
2018-07-13T12:59:31.917Z,23.89
2018-07-13T13:01:59.909Z,23.88
2018-07-13T13:04:27.995Z,24.14
2018-07-13T13:06:56.482Z,24.18
2018-07-13T13:09:24.504Z,24.29
2018-07-13T13:11:52.556Z,24.43
2018-07-13T13:14:21.324Z,24.23
2018-07-13T13:16:49.431Z,24.38
2018-07-13T13:19:17.508Z,24.32
2018-07-13T13:21:45.783Z,24.33
2018-07-13T13:24:13.764Z,24.59
2018-07-13T13:26:41.824Z,24.52
2018-07-13T13:29:09.908Z,24.78
2018-07-13T13:31:38.281Z,24.91
2018-07-13T13:34:06.362Z,25.09
2018-07-13T13:36:35.516Z,25.25
2018-07-13T13:39:04.085Z,25.33
2018-07-13T13:41:32.336Z,25.39
2018-07-13T13:44:00.774Z,25.37
2018-07-13T13:46:29.233Z,25.43
2018-07-13T13:48:57.550Z,25.36
2018-07-13T13:51:26.273Z,25.33
2018-07-13T13:53:54.905Z,25.12
2018-07-13T13:56:23.384Z,25.07
2018-07-13T13:58:52.028Z,24.87
2018-07-13T14:01:20.425Z,24.87
2018-07-13T14:03:48.931Z,24.86
2018-07-13T14:06:17.051Z,24.88
2018-07-13T14:08:45.186Z,25.11
2018-07-13T14:11:13.479Z,25.17
2018-07-13T14:13:42.008Z,25.22
2018-07-13T14:16:10.047Z,25.15
2018-07-13T14:18:38.116Z,25.02
2018-07-13T14:21:06.615Z,25.14
2018-07-13T14:23:34.707Z,25.17
2018-07-13T14:26:02.808Z,25.35
2018-07-13T14:28:31.173Z,25.17
2018-07-13T14:30:59.221Z,25.16
2018-07-13T14:33:27.300Z,25.12
2018-07-13T14:35:55.405Z,25.30
2018-07-13T14:38:23.549Z,25.55
2018-07-13T14:40:52.112Z,25.70
2018-07-13T14:43:21.293Z,25.78
2018-07-13T14:45:49.573Z,25.72
2018-07-13T14:48:17.604Z,25.59
2018-07-13T14:50:45.680Z,25.60
2018-07-13T14:53:13.724Z,25.28
2018-07-13T14:55:41.759Z,25.12
2018-07-13T14:58:09.808Z,25.09
2018-07-13T15:00:37.859Z,25.21
2018-07-13T15:03:06.015Z,25.15
2018-07-13T15:05:34.156Z,25.32
2018-07-13T15:08:02.411Z,25.38
2018-07-13T15:10:30.726Z,25.27
2018-07-13T15:12:59.049Z,25.39
2018-07-13T15:15:27.319Z,25.27
2018-07-13T15:17:56.276Z,25.37
2018-07-13T15:20:24.784Z,25.37
2018-07-13T15:22:53.553Z,25.47
2018-07-13T15:25:22.848Z,25.58
2018-07-13T15:27:51.470Z,25.44
2018-07-13T15:30:20.511Z,25.61
2018-07-13T15:32:48.615Z,25.62
2018-07-13T15:35:16.966Z,25.54
2018-07-13T15:37:45.040Z,25.69
2018-07-13T15:40:13.208Z,25.71
2018-07-13T15:42:41.275Z,25.84
2018-07-13T15:45:09.716Z,25.60
2018-07-13T15:47:37.782Z,25.54
2018-07-13T15:50:05.842Z,25.42
2018-07-13T15:52:34.037Z,25.52
2018-07-13T15:55:02.440Z,25.64
2018-07-13T15:57:30.776Z,25.60
2018-07-13T15:59:59.185Z,25.69
2018-07-13T16:02:27.627Z,25.71
2018-07-13T16:04:55.885Z,25.58
2018-07-13T16:07:24.788Z,25.60
2018-07-13T16:09:53.395Z,25.49
2018-07-13T16:12:23.070Z,25.46
2018-07-13T16:14:52.145Z,25.62
2018-07-13T16:17:21.108Z,25.58
2018-07-13T16:19:49.549Z,25.65
2018-07-13T16:22:17.713Z,25.59
2018-07-13T16:24:45.879Z,25.66
2018-07-13T16:27:13.961Z,25.77
2018-07-13T16:29:42.088Z,25.59
2018-07-13T16:32:10.331Z,25.51
2018-07-13T16:34:38.466Z,25.59
2018-07-13T16:37:06.591Z,25.50
2018-07-13T16:39:34.891Z,25.63
2018-07-13T16:42:03.028Z,25.44
2018-07-13T16:44:31.313Z,25.37
2018-07-13T16:46:59.373Z,25.22
2018-07-13T16:49:27.411Z,25.38
2018-07-13T16:51:55.560Z,25.25
2018-07-13T16:54:23.743Z,25.30
2018-07-13T16:56:51.776Z,25.49
2018-07-13T16:59:19.843Z,25.60
2018-07-13T17:01:47.920Z,25.68
2018-07-13T17:04:16.047Z,25.65
2018-07-13T17:06:44.112Z,25.58
2018-07-13T17:09:12.541Z,25.62
2018-07-13T17:11:40.928Z,25.58
2018-07-13T17:14:08.978Z,25.73
2018-07-13T17:16:37.053Z,25.74
2018-07-13T17:19:05.167Z,25.60
2018-07-13T17:21:33.816Z,25.65
2018-07-13T17:24:02.152Z,25.78
2018-07-13T17:26:30.953Z,25.55
2018-07-13T17:28:59.769Z,25.47
2018-07-13T17:31:28.515Z,25.50
2018-07-13T17:33:57.569Z,25.36
2018-07-13T17:36:26.608Z,25.27
2018-07-13T17:38:55.369Z,25.33
2018-07-13T17:41:24.434Z,25.25
2018-07-13T17:43:52.485Z,25.20
2018-07-13T17:46:20.585Z,25.28
2018-07-13T17:48:48.636Z,25.24
2018-07-13T17:51:16.712Z,25.34
2018-07-13T17:53:44.767Z,25.25
2018-07-13T17:56:12.848Z,25.22
2018-07-13T17:58:40.932Z,25.24
2018-07-13T18:01:09.243Z,25.12
2018-07-13T18:03:37.378Z,25.10
2018-07-13T18:06:05.684Z,25.09
2018-07-13T18:08:33.904Z,25.11
2018-07-13T18:11:02.006Z,25.03
2018-07-13T18:13:30.130Z,24.95
2018-07-13T18:15:58.220Z,24.94
2018-07-13T18:18:26.259Z,24.88
2018-07-13T18:20:54.402Z,24.74
2018-07-13T18:23:22.487Z,24.72
2018-07-13T18:25:50.550Z,24.67
2018-07-13T18:28:18.654Z,24.64
2018-07-13T18:30:46.914Z,24.57
2018-07-13T18:33:15.052Z,24.49
2018-07-13T18:35:43.099Z,24.39
2018-07-13T18:38:11.152Z,24.37
2018-07-13T18:40:39.221Z,24.32
2018-07-13T18:43:07.271Z,24.24
2018-07-13T18:45:35.414Z,24.19
2018-07-13T18:48:03.672Z,24.17
2018-07-13T18:50:32.180Z,24.12
2018-07-13T18:53:00.400Z,24.01
2018-07-13T18:55:28.687Z,23.88
2018-07-13T18:57:57.539Z,23.89
2018-07-13T19:00:26.295Z,23.83
2018-07-13T19:02:54.369Z,23.81
2018-07-13T19:05:22.736Z,23.73
2018-07-13T19:07:50.803Z,23.70
2018-07-13T19:10:18.889Z,23.65
2018-07-13T19:12:46.939Z,23.51
2018-07-13T19:15:14.998Z,23.49
2018-07-13T19:17:43.044Z,23.42
2018-07-13T19:20:11.104Z,23.36
2018-07-13T19:22:39.232Z,23.29
2018-07-13T19:25:07.182Z,23.22
2018-07-13T19:27:35.231Z,23.16
2018-07-13T19:30:03.257Z,23.04
2018-07-13T19:32:31.575Z,22.98
2018-07-13T19:34:59.638Z,22.91
2018-07-13T19:37:27.728Z,22.85
2018-07-13T19:39:55.780Z,22.78
2018-07-13T19:42:23.999Z,22.71
2018-07-13T19:44:52.406Z,22.63
2018-07-13T19:47:20.448Z,22.56
2018-07-13T19:49:48.489Z,22.49
2018-07-13T19:52:16.537Z,22.42
2018-07-13T19:54:44.811Z,22.38
2018-07-13T19:57:12.953Z,22.32
2018-07-13T19:59:40.960Z,22.24
2018-07-13T20:02:09.139Z,22.16
2018-07-13T20:04:37.456Z,22.07
2018-07-13T20:07:05.837Z,22.00
2018-07-13T20:09:34.268Z,21.92
2018-07-13T20:12:02.407Z,21.83
2018-07-13T20:14:30.557Z,21.72
2018-07-13T20:16:58.964Z,21.63
2018-07-13T20:19:27.033Z,21.56
2018-07-13T20:21:55.733Z,21.50
2018-07-13T20:24:24.001Z,21.39
2018-07-13T20:26:52.212Z,21.32
2018-07-13T20:29:20.487Z,21.27
2018-07-13T20:31:48.551Z,21.14
2018-07-13T20:34:17.003Z,21.16
2018-07-13T20:36:45.127Z,21.02
2018-07-13T20:39:13.687Z,20.95
2018-07-13T20:41:41.776Z,20.88
2018-07-13T20:44:09.863Z,20.86
2018-07-13T20:46:38.059Z,20.83
2018-07-13T20:49:06.111Z,20.71
2018-07-13T20:51:34.269Z,20.61
2018-07-13T20:54:02.317Z,20.53
2018-07-13T20:56:30.814Z,20.50
2018-07-13T20:58:59.018Z,20.42
2018-07-13T21:01:27.150Z,20.33
2018-07-13T21:03:55.542Z,20.33
2018-07-13T21:06:23.798Z,20.22
2018-07-13T21:08:52.398Z,20.21
2018-07-13T21:11:20.604Z,20.09
2018-07-13T21:13:48.698Z,19.86
2018-07-13T21:16:16.756Z,19.90
2018-07-13T21:18:46.318Z,19.90
2018-07-13T21:21:14.408Z,19.87
2018-07-13T21:23:42.468Z,19.83
2018-07-13T21:26:10.812Z,19.77
2018-07-13T21:28:39.218Z,19.70
2018-07-13T21:31:07.291Z,19.63
2018-07-13T21:33:35.447Z,19.57
2018-07-13T21:36:03.972Z,19.54
2018-07-13T21:38:32.159Z,19.40
2018-07-13T21:41:00.280Z,19.23
2018-07-13T21:43:28.676Z,19.26
2018-07-13T21:45:56.911Z,19.23
2018-07-13T21:48:25.230Z,19.20
2018-07-13T21:50:53.532Z,19.14
2018-07-13T21:53:21.962Z,19.08
2018-07-13T21:55:50.299Z,18.96
2018-07-13T21:58:18.416Z,18.93
2018-07-13T22:00:46.479Z,18.89
2018-07-13T22:03:14.553Z,18.82
2018-07-13T22:05:42.604Z,18.78
2018-07-13T22:08:10.800Z,18.73
2018-07-13T22:10:39.024Z,18.68
2018-07-13T22:13:07.107Z,18.60
2018-07-13T22:15:35.339Z,18.53
2018-07-13T22:20:30.579Z,18.51
2018-07-13T22:22:58.625Z,18.47
2018-07-13T22:25:26.692Z,18.35
2018-07-13T22:27:54.747Z,18.31
2018-07-13T22:30:22.783Z,18.25
2018-07-13T22:32:50.909Z,18.14
2018-07-13T22:35:18.980Z,18.10
2018-07-13T22:37:47.050Z,18.06
2018-07-13T22:40:15.253Z,18.04
2018-07-13T22:42:43.343Z,18.00
2018-07-13T22:45:11.900Z,17.93
2018-07-13T22:47:40.089Z,17.90
2018-07-13T22:50:08.191Z,17.83
2018-07-13T22:52:36.276Z,17.77
2018-07-13T22:55:04.382Z,17.73
2018-07-13T22:57:32.453Z,17.68
2018-07-13T23:00:00.626Z,17.66
2018-07-13T23:02:28.621Z,17.64
2018-07-13T23:04:56.704Z,17.57
2018-07-13T23:07:24.785Z,17.54
2018-07-13T23:09:52.847Z,17.50
2018-07-13T23:12:20.899Z,17.47
2018-07-13T23:14:48.963Z,17.42
2018-07-13T23:17:17.015Z,17.34
2018-07-13T23:19:45.138Z,17.29
2018-07-13T23:22:13.210Z,17.26
2018-07-13T23:24:41.307Z,17.22
2018-07-13T23:27:09.537Z,17.18
2018-07-13T23:29:37.601Z,17.12
2018-07-13T23:32:05.773Z,17.08
2018-07-13T23:34:33.860Z,17.04
2018-07-13T23:37:02.064Z,16.96
2018-07-13T23:39:30.188Z,16.91
2018-07-13T23:41:58.296Z,16.83
2018-07-13T23:44:26.763Z,16.79
2018-07-13T23:46:54.941Z,16.80
2018-07-13T23:49:23.239Z,16.78
2018-07-13T23:51:51.432Z,16.76
2018-07-13T23:54:19.572Z,16.72
2018-07-13T23:56:47.971Z,16.70
2018-07-13T23:59:16.130Z,16.66
